Cote D IVoirian Star — A8SL4 — position and weather

sailwx.info

Track history (hours):
 
Tides and Currents Weather Stations Pressure Air Temp Water Temp Dewpoint Dewpoint Depression Visibility Wind Speed Wind Dir Waves Ship Positions

Cote D IVoirian Star

Last reported at 2016-Jul-29 01:21 UTC. Time now 2016-Jul-29 23:35 UTC.
Position N 39°41' W 011°55'.

Length 185 m; draft 7.9 m.

Type: Cargo ship. MMSI: 636014241.

Date/timePositionNaut miles runAvg speedWind from/ knotsBaromVisibWave heightAir tempDewpointWater temp
2016-Jul-29 01:21N 39°41' W 011°55'1619.7
2016-Jul-29 00:33N 39°56' W 011°49'63519.2
2016-Jul-27 15:26N 49°17' W 004°50'3819.4
2016-Jul-27 13:30N 49°35' W 003°59'2218.4
2016-Jul-27 12:17N 49°45' W 003°28'1317.8
2016-Jul-27 11:33N 49°52' W 003°11'1717.0
2016-Jul-27 10:33N 49°59' W 002°47'9919.7
2016-Jul-27 05:33N 50°27' W 000°19'1919.1
2016-Jul-27 04:33N 50°33' E 000°09'1818.0
2016-Jul-27 03:33N 50°39' E 000°36'2017.7
2016-Jul-27 02:24N 50°51' E 001°02'1618.4
2016-Jul-27 01:34N 51°01' E 001°20'1716.6
2016-Jul-27 00:34N 51°11' E 001°42'1919.2
2016-Jul-26 23:33N 51°25' E 002°03'1717.4
2016-Jul-26 22:33N 51°23' E 002°31'1414.4
2016-Jul-26 21:33N 51°23' E 002°54'1616.1
2016-Jul-26 20:33N 51°24' E 003°19'1413.6
2016-Jul-26 19:33N 51°26' E 003°41'1110.5
2016-Jul-26 18:33N 51°25' E 003°58'9 9.1
2016-Jul-26 17:34N 51°24' E 004°12'9 8.6
2016-Jul-26 16:33N 51°16' E 004°17'0 0.1
2016-Jul-26 15:33N 51°16' E 004°17'1 1.3
2016-Jul-26 14:31N 51°16' E 004°15'0 0.0
2016-Jul-26 13:31N 51°16' E 004°15'0 0.0
2016-Jul-26 12:33N 51°16' E 004°15'0 0.0
2016-Jul-26 11:33N 51°16' E 004°15'0 0.0
2016-Jul-26 10:33N 51°16' E 004°15'0 0.0
2016-Jul-26 09:33N 51°16' E 004°15'0 0.0
2016-Jul-26 08:33N 51°16' E 004°15'0 0.0
2016-Jul-26 07:33N 51°16' E 004°15'0 0.0
2016-Jul-26 06:33N 51°16' E 004°15'0 0.0
2016-Jul-26 05:34N 51°16' E 004°15'0 0.0
2016-Jul-26 04:33N 51°16' E 004°15'0 0.0
2016-Jul-26 03:33N 51°16' E 004°15'0 0.0
2016-Jul-26 02:33N 51°16' E 004°15'0 0.0
2016-Jul-26 01:33N 51°16' E 004°15'0 0.0
2016-Jul-26 00:34N 51°16' E 004°15'0 0.0
2016-Jul-25 23:33N 51°16' E 004°15'0 0.0
2016-Jul-25 22:33N 51°16' E 004°15'0 0.0
2016-Jul-25 21:33N 51°16' E 004°15'0 0.0
2016-Jul-25 20:33N 51°16' E 004°15'0 0.0
2016-Jul-25 19:33N 51°16' E 004°15'0 0.0
2016-Jul-25 18:33N 51°16' E 004°15'0 0.0
2016-Jul-25 17:33N 51°16' E 004°15'0 0.0
2016-Jul-25 16:33N 51°16' E 004°15'0 0.0
2016-Jul-25 15:33N 51°16' E 004°15'0 0.0
2016-Jul-25 14:33N 51°16' E 004°15'0 0.0
2016-Jul-25 13:33N 51°16' E 004°15'0 0.0
2016-Jul-25 12:33N 51°16' E 004°15'0 0.0
2016-Jul-25 11:33N 51°16' E 004°15'0 0.0
2016-Jul-25 10:33N 51°16' E 004°15'0 0.0
2016-Jul-25 09:33N 51°16' E 004°15'0 0.0
2016-Jul-25 08:33N 51°16' E 004°15'0 0.0
2016-Jul-25 07:33N 51°16' E 004°15'0 0.0
2016-Jul-25 06:33N 51°16' E 004°15'0 0.0
2016-Jul-25 05:33N 51°16' E 004°15'0 0.0
2016-Jul-25 04:33N 51°16' E 004°15'0 0.0
2016-Jul-25 03:33N 51°16' E 004°15'0 0.0
2016-Jul-25 02:33N 51°16' E 004°15'0 0.0
2016-Jul-25 01:33N 51°16' E 004°15'0 0.0
2016-Jul-25 00:33N 51°16' E 004°15'0 0.0
2016-Jul-24 23:33N 51°16' E 004°15'0 0.0
2016-Jul-24 22:33N 51°16' E 004°15'0 0.0
2016-Jul-24 21:33N 51°16' E 004°15'0 0.0
2016-Jul-24 20:33N 51°16' E 004°15'0 0.0
2016-Jul-24 19:33N 51°16' E 004°15'0 0.0
2016-Jul-24 18:33N 51°16' E 004°15'0 0.0
2016-Jul-24 17:33N 51°16' E 004°15'0 0.0
2016-Jul-24 16:33N 51°16' E 004°15'0 0.0
2016-Jul-24 15:33N 51°16' E 004°15'1 1.3
2016-Jul-24 14:34N 51°16' E 004°17'4 4.3
2016-Jul-24 13:33N 51°20' E 004°16'1110.7
2016-Jul-24 12:34N 51°25' E 004°01'1211.8
2016-Jul-24 11:34N 51°23' E 003°43'1110.5
2016-Jul-24 10:33N 51°25' E 003°26'1413.5
2016-Jul-24 09:33N 51°24' E 003°05'1313.2
2016-Jul-24 08:33N 51°22' E 002°44'9 9.0
2016-Jul-24 07:33N 51°22' E 002°29'5 5.4
2016-Jul-24 06:33N 51°19' E 002°22'1211.5
2016-Jul-24 05:32N 51°13' E 002°05'2121.2
2016-Jul-24 04:33N 51°01' E 001°39'2322.0
2016-Jul-24 03:31N 50°42' E 001°20'2820.1
2016-Jul-24 02:09N 50°27' E 000°42'1520.2
2016-Jul-24 01:25N 50°24' E 000°19'1720.5
2016-Jul-24 00:33N 50°23' W 000°08'2121.2
2016-Jul-23 23:33N 50°31' W 000°39'1616.0
2016-Jul-23 22:33N 50°41' W 000°58'9 9.2
2016-Jul-23 21:33N 50°49' W 001°07'1 0.8
2016-Jul-23 20:31N 50°49' W 001°05'0 0.0
2016-Jul-23 19:31N 50°49' W 001°05'0 0.0
2016-Jul-23 18:31N 50°49' W 001°05'0 0.0
2016-Jul-23 17:31N 50°49' W 001°05'0 0.0
2016-Jul-23 16:31N 50°49' W 001°05'0 0.0
2016-Jul-23 15:31N 50°49' W 001°05'0 0.0
2016-Jul-23 14:31N 50°49' W 001°05'0 0.0
2016-Jul-23 13:31N 50°49' W 001°05'0 0.0
2016-Jul-23 12:31N 50°49' W 001°05'0 0.0
2016-Jul-23 11:31N 50°49' W 001°05'0 0.0
2016-Jul-23 10:31N 50°49' W 001°05'0 0.0
2016-Jul-23 09:31N 50°49' W 001°05'0 0.0
2016-Jul-23 08:31N 50°49' W 001°05'0 0.0
2016-Jul-23 07:31N 50°49' W 001°05'2 1.8
2016-Jul-23 06:34N 50°47' W 001°06'14 6.9
2016-Jul-23 04:34N 50°33' W 001°03'7 7.1
2016-Jul-23 03:34N 50°29' W 001°13'1615.3
2016-Jul-23 02:32N 50°20' W 001°33'2417.8
2016-Jul-23 01:11N 50°06' W 002°03'1319.3
2016-Jul-23 00:31N 49°58' W 002°19'1920.0
2016-Jul-22 23:34N 49°52' W 002°47'2020.3
2016-Jul-22 22:34N 49°43' W 003°15'2020.4
2016-Jul-22 21:33N 49°32' W 003°42'2220.4
2016-Jul-22 20:28N 49°20' W 004°12'4220.9
2016-Jul-22 18:27N 48°59' W 005°07'1920.9
2016-Jul-22 17:33N 48°48' W 005°30'75418.8
2016-Jul-21 01:34N 37°24' W 012°44'1919.0
2016-Jul-21 00:33N 37°06' W 012°50'1919.2
2016-Jul-20 23:33N 36°47' W 012°56'2019.2
2016-Jul-20 22:31N 36°28' W 013°03'1819.0
2016-Jul-20 21:33N 36°10' W 013°09'1919.1
2016-Jul-20 20:33N 35°52' W 013°15'2119.1
2016-Jul-20 19:27N 35°32' W 013°22'2119.0
2016-Jul-20 18:22N 35°12' W 013°29'17618.9
2016-Jul-20 09:04N 32°23' W 014°26'1019.0
2016-Jul-20 08:33N 32°14' W 014°30'  
Track history (hours):
 
Tides and Currents Weather Stations Pressure Air Temp Water Temp Dewpoint Dewpoint Depression Visibility Wind Speed Wind Dir Waves Ship Positions

Cote D IVoirian Star

Last reported at 2016-Jul-29 01:21 UTC. Time now 2016-Jul-29 23:35 UTC.
Position N 39°41' W 011°55'.

Length 185 m; draft 7.9 m.

Type: Cargo ship. MMSI: 636014241.

Date/timePositionNaut miles runAvg speedWind from/ knotsBaromVisibWave heightAir tempDewpointWater temp
2016-Jul-29 01:21N 39°41' W 011°55'1619.7
2016-Jul-29 00:33N 39°56' W 011°49'63519.2
2016-Jul-27 15:26N 49°17' W 004°50'3819.4
2016-Jul-27 13:30N 49°35' W 003°59'2218.4
2016-Jul-27 12:17N 49°45' W 003°28'1317.8
2016-Jul-27 11:33N 49°52' W 003°11'1717.0
2016-Jul-27 10:33N 49°59' W 002°47'9919.7
2016-Jul-27 05:33N 50°27' W 000°19'1919.1
2016-Jul-27 04:33N 50°33' E 000°09'1818.0
2016-Jul-27 03:33N 50°39' E 000°36'2017.7
2016-Jul-27 02:24N 50°51' E 001°02'1618.4
2016-Jul-27 01:34N 51°01' E 001°20'1716.6
2016-Jul-27 00:34N 51°11' E 001°42'1919.2
2016-Jul-26 23:33N 51°25' E 002°03'1717.4
2016-Jul-26 22:33N 51°23' E 002°31'1414.4
2016-Jul-26 21:33N 51°23' E 002°54'1616.1
2016-Jul-26 20:33N 51°24' E 003°19'1413.6
2016-Jul-26 19:33N 51°26' E 003°41'1110.5
2016-Jul-26 18:33N 51°25' E 003°58'9 9.1
2016-Jul-26 17:34N 51°24' E 004°12'9 8.6
2016-Jul-26 16:33N 51°16' E 004°17'0 0.1
2016-Jul-26 15:33N 51°16' E 004°17'1 1.3
2016-Jul-26 14:31N 51°16' E 004°15'0 0.0
2016-Jul-26 13:31N 51°16' E 004°15'0 0.0
2016-Jul-26 12:33N 51°16' E 004°15'0 0.0
2016-Jul-26 11:33N 51°16' E 004°15'0 0.0
2016-Jul-26 10:33N 51°16' E 004°15'0 0.0
2016-Jul-26 09:33N 51°16' E 004°15'0 0.0
2016-Jul-26 08:33N 51°16' E 004°15'0 0.0
2016-Jul-26 07:33N 51°16' E 004°15'0 0.0
2016-Jul-26 06:33N 51°16' E 004°15'0 0.0
2016-Jul-26 05:34N 51°16' E 004°15'0 0.0
2016-Jul-26 04:33N 51°16' E 004°15'0 0.0
2016-Jul-26 03:33N 51°16' E 004°15'0 0.0
2016-Jul-26 02:33N 51°16' E 004°15'0 0.0
2016-Jul-26 01:33N 51°16' E 004°15'0 0.0
2016-Jul-26 00:34N 51°16' E 004°15'0 0.0
2016-Jul-25 23:33N 51°16' E 004°15'0 0.0
2016-Jul-25 22:33N 51°16' E 004°15'0 0.0
2016-Jul-25 21:33N 51°16' E 004°15'0 0.0
2016-Jul-25 20:33N 51°16' E 004°15'0 0.0
2016-Jul-25 19:33N 51°16' E 004°15'0 0.0
2016-Jul-25 18:33N 51°16' E 004°15'0 0.0
2016-Jul-25 17:33N 51°16' E 004°15'0 0.0
2016-Jul-25 16:33N 51°16' E 004°15'0 0.0
2016-Jul-25 15:33N 51°16' E 004°15'0 0.0
2016-Jul-25 14:33N 51°16' E 004°15'0 0.0
2016-Jul-25 13:33N 51°16' E 004°15'0 0.0
2016-Jul-25 12:33N 51°16' E 004°15'0 0.0
2016-Jul-25 11:33N 51°16' E 004°15'0 0.0
2016-Jul-25 10:33N 51°16' E 004°15'0 0.0
2016-Jul-25 09:33N 51°16' E 004°15'0 0.0
2016-Jul-25 08:33N 51°16' E 004°15'0 0.0
2016-Jul-25 07:33N 51°16' E 004°15'0 0.0
2016-Jul-25 06:33N 51°16' E 004°15'0 0.0
2016-Jul-25 05:33N 51°16' E 004°15'0 0.0
2016-Jul-25 04:33N 51°16' E 004°15'0 0.0
2016-Jul-25 03:33N 51°16' E 004°15'0 0.0
2016-Jul-25 02:33N 51°16' E 004°15'0 0.0
2016-Jul-25 01:33N 51°16' E 004°15'0 0.0
2016-Jul-25 00:33N 51°16' E 004°15'0 0.0
2016-Jul-24 23:33N 51°16' E 004°15'0 0.0
2016-Jul-24 22:33N 51°16' E 004°15'0 0.0
2016-Jul-24 21:33N 51°16' E 004°15'0 0.0
2016-Jul-24 20:33N 51°16' E 004°15'0 0.0
2016-Jul-24 19:33N 51°16' E 004°15'0 0.0
2016-Jul-24 18:33N 51°16' E 004°15'0 0.0
2016-Jul-24 17:33N 51°16' E 004°15'0 0.0
2016-Jul-24 16:33N 51°16' E 004°15'0 0.0
2016-Jul-24 15:33N 51°16' E 004°15'1 1.3
2016-Jul-24 14:34N 51°16' E 004°17'4 4.3
2016-Jul-24 13:33N 51°20' E 004°16'1110.7
2016-Jul-24 12:34N 51°25' E 004°01'1211.8
2016-Jul-24 11:34N 51°23' E 003°43'1110.5
2016-Jul-24 10:33N 51°25' E 003°26'1413.5
2016-Jul-24 09:33N 51°24' E 003°05'1313.2
2016-Jul-24 08:33N 51°22' E 002°44'9 9.0
2016-Jul-24 07:33N 51°22' E 002°29'5 5.4
2016-Jul-24 06:33N 51°19' E 002°22'1211.5
2016-Jul-24 05:32N 51°13' E 002°05'2121.2
2016-Jul-24 04:33N 51°01' E 001°39'2322.0
2016-Jul-24 03:31N 50°42' E 001°20'2820.1
2016-Jul-24 02:09N 50°27' E 000°42'1520.2
2016-Jul-24 01:25N 50°24' E 000°19'1720.5
2016-Jul-24 00:33N 50°23' W 000°08'2121.2
2016-Jul-23 23:33N 50°31' W 000°39'1616.0
2016-Jul-23 22:33N 50°41' W 000°58'9 9.2
2016-Jul-23 21:33N 50°49' W 001°07'1 0.8
2016-Jul-23 20:31N 50°49' W 001°05'0 0.0
2016-Jul-23 19:31N 50°49' W 001°05'0 0.0
2016-Jul-23 18:31N 50°49' W 001°05'0 0.0
2016-Jul-23 17:31N 50°49' W 001°05'0 0.0
2016-Jul-23 16:31N 50°49' W 001°05'0 0.0
2016-Jul-23 15:31N 50°49' W 001°05'0 0.0
2016-Jul-23 14:31N 50°49' W 001°05'0 0.0
2016-Jul-23 13:31N 50°49' W 001°05'0 0.0
2016-Jul-23 12:31N 50°49' W 001°05'0 0.0
2016-Jul-23 11:31N 50°49' W 001°05'0 0.0
2016-Jul-23 10:31N 50°49' W 001°05'0 0.0
2016-Jul-23 09:31N 50°49' W 001°05'0 0.0
2016-Jul-23 08:31N 50°49' W 001°05'0 0.0
2016-Jul-23 07:31N 50°49' W 001°05'2 1.8
2016-Jul-23 06:34N 50°47' W 001°06'14 6.9
2016-Jul-23 04:34N 50°33' W 001°03'7 7.1
2016-Jul-23 03:34N 50°29' W 001°13'1615.3
2016-Jul-23 02:32N 50°20' W 001°33'2417.8
2016-Jul-23 01:11N 50°06' W 002°03'1319.3
2016-Jul-23 00:31N 49°58' W 002°19'1920.0
2016-Jul-22 23:34N 49°52' W 002°47'2020.3
2016-Jul-22 22:34N 49°43' W 003°15'2020.4
2016-Jul-22 21:33N 49°32' W 003°42'2220.4
2016-Jul-22 20:28N 49°20' W 004°12'4220.9
2016-Jul-22 18:27N 48°59' W 005°07'1920.9
2016-Jul-22 17:33N 48°48' W 005°30'75418.8
2016-Jul-21 01:34N 37°24' W 012°44'1919.0
2016-Jul-21 00:33N 37°06' W 012°50'1919.2
2016-Jul-20 23:33N 36°47' W 012°56'2019.2
2016-Jul-20 22:31N 36°28' W 013°03'1819.0
2016-Jul-20 21:33N 36°10' W 013°09'1919.1
2016-Jul-20 20:33N 35°52' W 013°15'2119.1
2016-Jul-20 19:27N 35°32' W 013°22'2119.0
2016-Jul-20 18:22N 35°12' W 013°29'17618.9
2016-Jul-20 09:04N 32°23' W 014°26'1019.0
2016-Jul-20 08:33N 32°14' W 014°30'  

Dump ship's entire track history